sensor_id;sensor_type;location;lat;lon;timestamp;P1;durP1;ratioP1;P2;durP2;ratioP2
70420;SDS011;57848;51.938;15.520;2022-08-25T00:01:55;22.98;;;13.52;;
70420;SDS011;57848;51.938;15.520;2022-08-25T00:04:23;26.95;;;15.98;;
70420;SDS011;57848;51.938;15.520;2022-08-25T00:06:48;23.67;;;14.73;;
70420;SDS011;57848;51.938;15.520;2022-08-25T00:09:16;23.93;;;14.40;;
70420;SDS011;57848;51.938;15.520;2022-08-25T00:11:43;26.20;;;14.70;;
70420;SDS011;57848;51.938;15.520;2022-08-25T00:14:15;23.92;;;13.88;;
70420;SDS011;57848;51.938;15.520;2022-08-25T00:16:43;31.25;;;15.63;;
70420;SDS011;57848;51.938;15.520;2022-08-25T00:19:10;24.63;;;14.97;;
70420;SDS011;57848;51.938;15.520;2022-08-25T00:21:38;26.33;;;15.23;;
70420;SDS011;57848;51.938;15.520;2022-08-25T00:24:05;27.65;;;15.60;;
70420;SDS011;57848;51.938;15.520;2022-08-25T00:26:32;27.70;;;15.50;;
70420;SDS011;57848;51.938;15.520;2022-08-25T00:28:58;26.73;;;15.25;;
70420;SDS011;57848;51.938;15.520;2022-08-25T00:31:24;27.93;;;15.77;;
70420;SDS011;57848;51.938;15.520;2022-08-25T00:33:50;25.88;;;15.63;;
70420;SDS011;57848;51.938;15.520;2022-08-25T00:36:17;28.47;;;15.87;;
70420;SDS011;57848;51.938;15.520;2022-08-25T00:38:44;25.05;;;15.70;;
70420;SDS011;57848;51.938;15.520;2022-08-25T00:41:11;22.35;;;15.32;;
70420;SDS011;57848;51.938;15.520;2022-08-25T00:46:04;25.07;;;16.47;;
70420;SDS011;57848;51.938;15.520;2022-08-25T00:48:31;25.95;;;16.33;;
70420;SDS011;57848;51.938;15.520;2022-08-25T00:50:56;25.77;;;16.07;;
70420;SDS011;57848;51.938;15.520;2022-08-25T00:53:22;31.70;;;16.77;;
70420;SDS011;57848;51.938;15.520;2022-08-25T00:55:47;27.65;;;16.35;;
70420;SDS011;57848;51.938;15.520;2022-08-25T00:58:21;27.03;;;15.40;;
70420;SDS011;57848;51.938;15.520;2022-08-25T01:00:50;29.13;;;16.80;;
70420;SDS011;57848;51.938;15.520;2022-08-25T01:03:18;26.42;;;16.00;;
70420;SDS011;57848;51.938;15.520;2022-08-25T01:05:44;29.10;;;15.50;;
70420;SDS011;57848;51.938;15.520;2022-08-25T01:08:10;29.80;;;15.13;;
70420;SDS011;57848;51.938;15.520;2022-08-25T01:10:37;28.05;;;16.52;;
70420;SDS011;57848;51.938;15.520;2022-08-25T01:13:08;26.50;;;16.83;;
70420;SDS011;57848;51.938;15.520;2022-08-25T01:15:37;31.98;;;17.00;;
70420;SDS011;57848;51.938;15.520;2022-08-25T01:18:03;23.80;;;15.70;;
70420;SDS011;57848;51.938;15.520;2022-08-25T01:20:29;27.20;;;17.33;;
70420;SDS011;57848;51.938;15.520;2022-08-25T01:22:56;25.92;;;16.42;;
70420;SDS011;57848;51.938;15.520;2022-08-25T01:28:12;29.63;;;16.45;;
70420;SDS011;57848;51.938;15.520;2022-08-25T01:30:38;27.48;;;16.35;;
70420;SDS011;57848;51.938;15.520;2022-08-25T01:33:04;24.80;;;15.57;;
70420;SDS011;57848;51.938;15.520;2022-08-25T01:35:30;27.33;;;16.85;;
70420;SDS011;57848;51.938;15.520;2022-08-25T01:37:57;26.77;;;17.05;;
70420;SDS011;57848;51.938;15.520;2022-08-25T01:40:24;31.50;;;16.90;;
70420;SDS011;57848;51.938;15.520;2022-08-25T01:45:40;29.30;;;16.77;;
70420;SDS011;57848;51.938;15.520;2022-08-25T01:48:08;34.00;;;19.00;;
70420;SDS011;57848;51.938;15.520;2022-08-25T01:50:34;29.05;;;17.80;;
70420;SDS011;57848;51.938;15.520;2022-08-25T01:55:36;30.95;;;17.92;;
70420;SDS011;57848;51.938;15.520;2022-08-25T01:58:20;29.97;;;17.60;;
70420;SDS011;57848;51.938;15.520;2022-08-25T02:00:48;29.85;;;17.05;;
70420;SDS011;57848;51.938;15.520;2022-08-25T02:03:15;32.35;;;17.60;;
70420;SDS011;57848;51.938;15.520;2022-08-25T02:05:42;33.28;;;17.90;;
70420;SDS011;57848;51.938;15.520;2022-08-25T02:08:08;29.95;;;17.23;;
70420;SDS011;57848;51.938;15.520;2022-08-25T02:10:34;31.10;;;18.40;;
70420;SDS011;57848;51.938;15.520;2022-08-25T02:12:59;29.73;;;17.47;;
70420;SDS011;57848;51.938;15.520;2022-08-25T02:15:25;29.25;;;18.73;;
70420;SDS011;57848;51.938;15.520;2022-08-25T02:17:50;32.30;;;19.17;;
70420;SDS011;57848;51.938;15.520;2022-08-25T02:20:15;32.00;;;20.70;;
70420;SDS011;57848;51.938;15.520;2022-08-25T02:22:41;32.73;;;20.37;;
70420;SDS011;57848;51.938;15.520;2022-08-25T02:25:06;29.37;;;18.53;;
70420;SDS011;57848;51.938;15.520;2022-08-25T02:27:32;30.73;;;17.33;;
70420;SDS011;57848;51.938;15.520;2022-08-25T02:29:59;30.10;;;18.25;;
70420;SDS011;57848;51.938;15.520;2022-08-25T02:32:24;33.00;;;17.90;;
70420;SDS011;57848;51.938;15.520;2022-08-25T02:34:50;29.93;;;19.03;;
70420;SDS011;57848;51.938;15.520;2022-08-25T02:37:15;33.37;;;18.40;;
70420;SDS011;57848;51.938;15.520;2022-08-25T02:39:41;31.40;;;17.27;;
70420;SDS011;57848;51.938;15.520;2022-08-25T02:42:06;28.37;;;17.37;;
70420;SDS011;57848;51.938;15.520;2022-08-25T02:44:31;30.83;;;18.30;;
70420;SDS011;57848;51.938;15.520;2022-08-25T02:46:57;29.50;;;18.33;;
70420;SDS011;57848;51.938;15.520;2022-08-25T02:49:22;31.98;;;17.52;;
70420;SDS011;57848;51.938;15.520;2022-08-25T02:51:48;29.03;;;18.20;;
70420;SDS011;57848;51.938;15.520;2022-08-25T02:54:13;31.70;;;19.27;;
70420;SDS011;57848;51.938;15.520;2022-08-25T02:56:40;33.00;;;19.63;;
70420;SDS011;57848;51.938;15.520;2022-08-25T02:59:06;31.67;;;19.25;;
70420;SDS011;57848;51.938;15.520;2022-08-25T03:01:33;31.98;;;20.60;;
70420;SDS011;57848;51.938;15.520;2022-08-25T03:03:59;32.97;;;21.40;;
70420;SDS011;57848;51.938;15.520;2022-08-25T03:06:25;31.85;;;19.73;;
70420;SDS011;57848;51.938;15.520;2022-08-25T03:08:52;35.97;;;22.73;;
70420;SDS011;57848;51.938;15.520;2022-08-25T03:11:18;30.30;;;22.05;;
70420;SDS011;57848;51.938;15.520;2022-08-25T03:13:44;34.33;;;20.40;;
70420;SDS011;57848;51.938;15.520;2022-08-25T03:16:10;38.60;;;20.63;;
70420;SDS011;57848;51.938;15.520;2022-08-25T03:18:36;33.40;;;20.02;;
70420;SDS011;57848;51.938;15.520;2022-08-25T03:21:01;30.83;;;18.87;;
70420;SDS011;57848;51.938;15.520;2022-08-25T03:23:27;33.72;;;19.90;;
70420;SDS011;57848;51.938;15.520;2022-08-25T03:25:54;31.75;;;20.48;;
70420;SDS011;57848;51.938;15.520;2022-08-25T03:28:38;31.85;;;20.42;;
70420;SDS011;57848;51.938;15.520;2022-08-25T03:31:05;34.43;;;20.00;;
70420;SDS011;57848;51.938;15.520;2022-08-25T03:33:31;32.60;;;19.42;;
70420;SDS011;57848;51.938;15.520;2022-08-25T03:35:57;36.78;;;20.08;;
70420;SDS011;57848;51.938;15.520;2022-08-25T03:38:23;31.00;;;20.10;;
70420;SDS011;57848;51.938;15.520;2022-08-25T03:40:49;37.33;;;20.65;;
70420;SDS011;57848;51.938;15.520;2022-08-25T03:43:16;36.22;;;20.50;;
70420;SDS011;57848;51.938;15.520;2022-08-25T03:45:41;35.65;;;20.30;;
70420;SDS011;57848;51.938;15.520;2022-08-25T03:48:08;42.17;;;21.77;;
70420;SDS011;57848;51.938;15.520;2022-08-25T03:50:34;40.72;;;22.08;;
70420;SDS011;57848;51.938;15.520;2022-08-25T03:53:00;32.28;;;21.77;;
70420;SDS011;57848;51.938;15.520;2022-08-25T03:55:25;38.77;;;21.50;;
70420;SDS011;57848;51.938;15.520;2022-08-25T03:57:51;34.08;;;20.55;;
70420;SDS011;57848;51.938;15.520;2022-08-25T04:00:18;34.40;;;21.60;;
70420;SDS011;57848;51.938;15.520;2022-08-25T04:02:44;37.40;;;21.35;;
70420;SDS011;57848;51.938;15.520;2022-08-25T04:05:10;37.63;;;21.57;;
70420;SDS011;57848;51.938;15.520;2022-08-25T04:07:35;42.95;;;21.25;;
70420;SDS011;57848;51.938;15.520;2022-08-25T04:10:01;32.43;;;21.17;;
70420;SDS011;57848;51.938;15.520;2022-08-25T04:12:27;34.05;;;21.70;;
70420;SDS011;57848;51.938;15.520;2022-08-25T04:14:52;38.50;;;22.50;;
70420;SDS011;57848;51.938;15.520;2022-08-25T04:17:18;38.22;;;21.27;;
70420;SDS011;57848;51.938;15.520;2022-08-25T04:19:43;37.33;;;21.20;;
70420;SDS011;57848;51.938;15.520;2022-08-25T04:22:08;35.50;;;22.33;;
70420;SDS011;57848;51.938;15.520;2022-08-25T04:24:34;35.57;;;22.30;;
70420;SDS011;57848;51.938;15.520;2022-08-25T04:26:59;35.03;;;22.43;;
70420;SDS011;57848;51.938;15.520;2022-08-25T04:29:25;37.90;;;22.50;;
70420;SDS011;57848;51.938;15.520;2022-08-25T04:31:51;39.13;;;22.90;;
70420;SDS011;57848;51.938;15.520;2022-08-25T04:34:19;38.25;;;22.08;;
70420;SDS011;57848;51.938;15.520;2022-08-25T04:36:46;38.05;;;23.40;;
70420;SDS011;57848;51.938;15.520;2022-08-25T04:39:14;39.23;;;22.77;;
70420;SDS011;57848;51.938;15.520;2022-08-25T04:41:40;39.50;;;23.23;;
70420;SDS011;57848;51.938;15.520;2022-08-25T04:44:05;41.77;;;23.63;;
70420;SDS011;57848;51.938;15.520;2022-08-25T04:46:32;42.47;;;24.53;;
70420;SDS011;57848;51.938;15.520;2022-08-25T04:48:59;41.70;;;25.03;;
70420;SDS011;57848;51.938;15.520;2022-08-25T04:51:27;41.15;;;23.50;;
70420;SDS011;57848;51.938;15.520;2022-08-25T04:53:56;37.78;;;23.80;;
70420;SDS011;57848;51.938;15.520;2022-08-25T04:56:24;40.58;;;23.85;;
70420;SDS011;57848;51.938;15.520;2022-08-25T04:58:50;47.97;;;25.90;;
70420;SDS011;57848;51.938;15.520;2022-08-25T05:01:17;40.70;;;24.42;;
70420;SDS011;57848;51.938;15.520;2022-08-25T05:03:46;43.83;;;24.15;;
70420;SDS011;57848;51.938;15.520;2022-08-25T05:06:13;42.25;;;24.00;;
70420;SDS011;57848;51.938;15.520;2022-08-25T05:08:38;41.25;;;25.92;;
70420;SDS011;57848;51.938;15.520;2022-08-25T05:11:08;39.03;;;23.27;;
70420;SDS011;57848;51.938;15.520;2022-08-25T05:13:38;40.85;;;23.88;;
70420;SDS011;57848;51.938;15.520;2022-08-25T05:16:04;38.78;;;24.02;;
70420;SDS011;57848;51.938;15.520;2022-08-25T05:18:30;40.60;;;23.43;;
70420;SDS011;57848;51.938;15.520;2022-08-25T05:21:00;46.33;;;23.65;;
70420;SDS011;57848;51.938;15.520;2022-08-25T05:23:26;40.30;;;22.80;;
70420;SDS011;57848;51.938;15.520;2022-08-25T05:25:52;40.07;;;22.43;;
70420;SDS011;57848;51.938;15.520;2022-08-25T05:28:18;39.30;;;23.52;;
70420;SDS011;57848;51.938;15.520;2022-08-25T05:30:44;37.37;;;22.03;;
70420;SDS011;57848;51.938;15.520;2022-08-25T05:33:10;38.97;;;21.48;;
70420;SDS011;57848;51.938;15.520;2022-08-25T05:35:36;44.28;;;22.42;;
70420;SDS011;57848;51.938;15.520;2022-08-25T05:38:03;35.78;;;21.33;;
70420;SDS011;57848;51.938;15.520;2022-08-25T05:40:29;36.80;;;21.70;;
70420;SDS011;57848;51.938;15.520;2022-08-25T05:42:55;35.73;;;21.33;;
70420;SDS011;57848;51.938;15.520;2022-08-25T05:45:21;41.10;;;22.05;;
70420;SDS011;57848;51.938;15.520;2022-08-25T05:47:47;38.00;;;23.33;;
70420;SDS011;57848;51.938;15.520;2022-08-25T05:50:13;42.10;;;21.75;;
70420;SDS011;57848;51.938;15.520;2022-08-25T05:52:38;36.88;;;21.48;;
70420;SDS011;57848;51.938;15.520;2022-08-25T05:55:04;35.90;;;21.70;;
70420;SDS011;57848;51.938;15.520;2022-08-25T05:57:31;37.10;;;22.02;;
70420;SDS011;57848;51.938;15.520;2022-08-25T05:59:57;39.33;;;21.77;;
70420;SDS011;57848;51.938;15.520;2022-08-25T06:02:22;37.30;;;22.13;;
70420;SDS011;57848;51.938;15.520;2022-08-25T06:05:13;45.03;;;21.33;;
70420;SDS011;57848;51.938;15.520;2022-08-25T06:07:40;38.60;;;21.55;;
70420;SDS011;57848;51.938;15.520;2022-08-25T06:10:06;35.83;;;21.98;;
70420;SDS011;57848;51.938;15.520;2022-08-25T06:12:37;29.15;;;19.48;;
70420;SDS011;57848;51.938;15.520;2022-08-25T06:15:05;34.30;;;21.60;;
70420;SDS011;57848;51.938;15.520;2022-08-25T06:17:31;32.87;;;20.53;;
70420;SDS011;57848;51.938;15.520;2022-08-25T06:19:56;38.50;;;21.00;;
70420;SDS011;57848;51.938;15.520;2022-08-25T06:22:21;33.37;;;20.97;;
70420;SDS011;57848;51.938;15.520;2022-08-25T06:24:49;34.58;;;20.77;;
70420;SDS011;57848;51.938;15.520;2022-08-25T06:27:15;34.40;;;21.03;;
70420;SDS011;57848;51.938;15.520;2022-08-25T06:29:40;36.13;;;21.10;;
70420;SDS011;57848;51.938;15.520;2022-08-25T06:32:05;33.72;;;19.73;;
70420;SDS011;57848;51.938;15.520;2022-08-25T06:34:31;35.30;;;20.40;;
70420;SDS011;57848;51.938;15.520;2022-08-25T06:36:56;30.77;;;19.67;;
70420;SDS011;57848;51.938;15.520;2022-08-25T06:39:22;32.47;;;20.00;;
70420;SDS011;57848;51.938;15.520;2022-08-25T06:41:51;33.03;;;19.33;;
70420;SDS011;57848;51.938;15.520;2022-08-25T06:44:18;35.33;;;20.35;;
70420;SDS011;57848;51.938;15.520;2022-08-25T06:46:44;33.25;;;19.58;;
70420;SDS011;57848;51.938;15.520;2022-08-25T06:49:09;41.27;;;19.77;;
70420;SDS011;57848;51.938;15.520;2022-08-25T06:51:35;31.55;;;19.38;;
70420;SDS011;57848;51.938;15.520;2022-08-25T06:54:00;31.97;;;17.90;;
70420;SDS011;57848;51.938;15.520;2022-08-25T06:56:26;31.07;;;18.67;;
70420;SDS011;57848;51.938;15.520;2022-08-25T06:58:51;29.08;;;18.50;;
70420;SDS011;57848;51.938;15.520;2022-08-25T07:01:18;38.30;;;17.77;;
70420;SDS011;57848;51.938;15.520;2022-08-25T07:03:47;30.50;;;19.42;;
70420;SDS011;57848;51.938;15.520;2022-08-25T07:06:14;30.20;;;17.77;;
70420;SDS011;57848;51.938;15.520;2022-08-25T07:08:40;32.92;;;18.65;;
70420;SDS011;57848;51.938;15.520;2022-08-25T07:11:07;41.67;;;18.35;;
70420;SDS011;57848;51.938;15.520;2022-08-25T07:13:34;31.73;;;19.25;;
70420;SDS011;57848;51.938;15.520;2022-08-25T07:16:01;41.03;;;20.88;;
70420;SDS011;57848;51.938;15.520;2022-08-25T07:18:26;36.00;;;20.70;;
70420;SDS011;57848;51.938;15.520;2022-08-25T07:20:53;53.08;;;20.13;;
70420;SDS011;57848;51.938;15.520;2022-08-25T07:23:20;78.72;;;22.05;;
70420;SDS011;57848;51.938;15.520;2022-08-25T07:25:46;36.30;;;21.27;;
70420;SDS011;57848;51.938;15.520;2022-08-25T07:28:12;31.83;;;19.80;;
70420;SDS011;57848;51.938;15.520;2022-08-25T07:30:38;38.63;;;20.92;;
70420;SDS011;57848;51.938;15.520;2022-08-25T07:33:04;35.60;;;21.67;;
70420;SDS011;57848;51.938;15.520;2022-08-25T07:35:29;35.70;;;21.40;;
70420;SDS011;57848;51.938;15.520;2022-08-25T07:37:56;37.80;;;20.70;;
70420;SDS011;57848;51.938;15.520;2022-08-25T07:40:24;47.72;;;21.08;;
70420;SDS011;57848;51.938;15.520;2022-08-25T07:42:56;40.75;;;20.73;;
70420;SDS011;57848;51.938;15.520;2022-08-25T07:45:23;35.87;;;21.07;;
70420;SDS011;57848;51.938;15.520;2022-08-25T07:47:57;44.90;;;20.65;;
70420;SDS011;57848;51.938;15.520;2022-08-25T07:50:24;36.08;;;20.88;;
70420;SDS011;57848;51.938;15.520;2022-08-25T07:52:51;33.60;;;20.02;;
70420;SDS011;57848;51.938;15.520;2022-08-25T07:55:17;32.90;;;20.53;;
70420;SDS011;57848;51.938;15.520;2022-08-25T07:57:43;47.50;;;20.65;;
70420;SDS011;57848;51.938;15.520;2022-08-25T08:00:09;37.90;;;22.07;;
70420;SDS011;57848;51.938;15.520;2022-08-25T08:02:39;41.25;;;22.70;;
70420;SDS011;57848;51.938;15.520;2022-08-25T08:05:05;36.30;;;22.35;;
70420;SDS011;57848;51.938;15.520;2022-08-25T08:07:31;36.35;;;20.83;;
70420;SDS011;57848;51.938;15.520;2022-08-25T08:09:57;39.17;;;20.37;;
70420;SDS011;57848;51.938;15.520;2022-08-25T08:12:23;42.03;;;21.50;;
70420;SDS011;57848;51.938;15.520;2022-08-25T08:14:50;34.45;;;20.88;;
70420;SDS011;57848;51.938;15.520;2022-08-25T08:17:16;38.10;;;19.63;;
70420;SDS011;57848;51.938;15.520;2022-08-25T08:19:42;33.27;;;18.87;;
70420;SDS011;57848;51.938;15.520;2022-08-25T08:22:08;33.88;;;20.15;;
70420;SDS011;57848;51.938;15.520;2022-08-25T08:24:35;34.93;;;19.17;;
70420;SDS011;57848;51.938;15.520;2022-08-25T08:27:06;31.75;;;19.38;;
70420;SDS011;57848;51.938;15.520;2022-08-25T08:29:32;28.83;;;17.98;;
70420;SDS011;57848;51.938;15.520;2022-08-25T08:32:01;30.80;;;17.27;;
70420;SDS011;57848;51.938;15.520;2022-08-25T08:34:28;36.90;;;18.58;;
70420;SDS011;57848;51.938;15.520;2022-08-25T08:36:54;34.83;;;19.37;;
70420;SDS011;57848;51.938;15.520;2022-08-25T08:39:20;31.48;;;18.92;;
70420;SDS011;57848;51.938;15.520;2022-08-25T08:49:57;31.48;;;16.45;;
70420;SDS011;57848;51.938;15.520;2022-08-25T08:52:35;32.67;;;16.27;;
70420;SDS011;57848;51.938;15.520;2022-08-25T08:55:06;24.83;;;15.27;;
70420;SDS011;57848;51.938;15.520;2022-08-25T08:57:40;27.77;;;15.35;;
70420;SDS011;57848;51.938;15.520;2022-08-25T09:00:08;28.50;;;15.38;;
70420;SDS011;57848;51.938;15.520;2022-08-25T09:02:41;25.88;;;14.95;;
70420;SDS011;57848;51.938;15.520;2022-08-25T09:05:12;24.70;;;14.13;;
70420;SDS011;57848;51.938;15.520;2022-08-25T09:07:44;28.75;;;15.55;;
70420;SDS011;57848;51.938;15.520;2022-08-25T09:10:15;26.42;;;14.90;;
70420;SDS011;57848;51.938;15.520;2022-08-25T09:12:43;21.88;;;13.52;;
70420;SDS011;57848;51.938;15.520;2022-08-25T09:15:17;25.67;;;13.30;;
70420;SDS011;57848;51.938;15.520;2022-08-25T09:18:13;27.73;;;13.83;;
70420;SDS011;57848;51.938;15.520;2022-08-25T09:26:56;26.38;;;15.15;;
70420;SDS011;57848;51.938;15.520;2022-08-25T09:29:46;31.63;;;19.17;;
70420;SDS011;57848;51.938;15.520;2022-08-25T09:32:24;33.33;;;17.60;;
70420;SDS011;57848;51.938;15.520;2022-08-25T09:34:52;31.90;;;17.40;;
70420;SDS011;57848;51.938;15.520;2022-08-25T09:37:19;34.30;;;17.25;;
70420;SDS011;57848;51.938;15.520;2022-08-25T09:39:46;29.27;;;17.58;;
70420;SDS011;57848;51.938;15.520;2022-08-25T09:42:12;29.00;;;16.70;;
70420;SDS011;57848;51.938;15.520;2022-08-25T09:44:43;26.10;;;15.57;;
70420;SDS011;57848;51.938;15.520;2022-08-25T09:49:43;23.95;;;15.88;;
70420;SDS011;57848;51.938;15.520;2022-08-25T09:54:56;27.83;;;15.02;;
70420;SDS011;57848;51.938;15.520;2022-08-25T09:57:46;25.73;;;14.70;;
70420;SDS011;57848;51.938;15.520;2022-08-25T10:00:21;23.65;;;14.35;;
70420;SDS011;57848;51.938;15.520;2022-08-25T10:08:24;25.92;;;13.43;;
70420;SDS011;57848;51.938;15.520;2022-08-25T10:10:57;21.52;;;12.43;;
70420;SDS011;57848;51.938;15.520;2022-08-25T10:13:38;26.70;;;12.50;;
70420;SDS011;57848;51.938;15.520;2022-08-25T10:18:45;22.13;;;12.10;;
70420;SDS011;57848;51.938;15.520;2022-08-25T10:21:29;20.48;;;11.75;;
70420;SDS011;57848;51.938;15.520;2022-08-25T10:23:54;23.38;;;12.52;;
70420;SDS011;57848;51.938;15.520;2022-08-25T10:26:35;19.87;;;11.77;;
70420;SDS011;57848;51.938;15.520;2022-08-25T10:39:40;19.55;;;9.98;;
70420;SDS011;57848;51.938;15.520;2022-08-25T10:42:11;20.85;;;9.45;;
70420;SDS011;57848;51.938;15.520;2022-08-25T10:48:01;21.02;;;9.68;;
70420;SDS011;57848;51.938;15.520;2022-08-25T10:54:04;21.80;;;9.93;;
70420;SDS011;57848;51.938;15.520;2022-08-25T10:56:40;19.67;;;9.18;;
70420;SDS011;57848;51.938;15.520;2022-08-25T11:02:19;21.70;;;9.93;;
70420;SDS011;57848;51.938;15.520;2022-08-25T11:05:07;23.20;;;9.43;;
70420;SDS011;57848;51.938;15.520;2022-08-25T11:07:37;21.02;;;8.57;;
70420;SDS011;57848;51.938;15.520;2022-08-25T11:10:10;21.08;;;8.57;;
70420;SDS011;57848;51.938;15.520;2022-08-25T11:12:40;17.02;;;8.80;;
70420;SDS011;57848;51.938;15.520;2022-08-25T11:15:10;19.77;;;8.52;;
70420;SDS011;57848;51.938;15.520;2022-08-25T11:17:44;16.20;;;8.33;;
70420;SDS011;57848;51.938;15.520;2022-08-25T11:20:23;22.02;;;8.40;;
70420;SDS011;57848;51.938;15.520;2022-08-25T11:25:36;18.83;;;8.30;;
70420;SDS011;57848;51.938;15.520;2022-08-25T11:28:17;18.52;;;9.18;;
70420;SDS011;57848;51.938;15.520;2022-08-25T11:30:51;26.33;;;8.57;;
70420;SDS011;57848;51.938;15.520;2022-08-25T11:33:17;20.38;;;7.63;;
70420;SDS011;57848;51.938;15.520;2022-08-25T11:35:48;19.05;;;8.30;;
70420;SDS011;57848;51.938;15.520;2022-08-25T11:38:38;20.33;;;6.90;;
70420;SDS011;57848;51.938;15.520;2022-08-25T11:41:24;19.10;;;8.32;;
70420;SDS011;57848;51.938;15.520;2022-08-25T11:44:11;20.73;;;7.93;;
70420;SDS011;57848;51.938;15.520;2022-08-25T11:46:51;18.23;;;7.75;;
70420;SDS011;57848;51.938;15.520;2022-08-25T11:49:44;18.85;;;8.35;;
70420;SDS011;57848;51.938;15.520;2022-08-25T11:57:40;19.67;;;7.70;;
70420;SDS011;57848;51.938;15.520;2022-08-25T12:00:12;19.63;;;7.93;;
70420;SDS011;57848;51.938;15.520;2022-08-25T12:02:40;19.25;;;6.78;;
70420;SDS011;57848;51.938;15.520;2022-08-25T12:12:54;19.42;;;6.57;;
70420;SDS011;57848;51.938;15.520;2022-08-25T12:15:27;17.92;;;6.28;;
70420;SDS011;57848;51.938;15.520;2022-08-25T12:25:52;20.52;;;6.03;;
70420;SDS011;57848;51.938;15.520;2022-08-25T12:28:35;19.90;;;7.13;;
70420;SDS011;57848;51.938;15.520;2022-08-25T12:34:07;20.17;;;7.03;;
70420;SDS011;57848;51.938;15.520;2022-08-25T12:36:40;17.60;;;5.97;;
70420;SDS011;57848;51.938;15.520;2022-08-25T12:39:22;19.40;;;6.45;;
70420;SDS011;57848;51.938;15.520;2022-08-25T12:42:05;24.08;;;7.25;;
70420;SDS011;57848;51.938;15.520;2022-08-25T12:44:33;25.10;;;6.32;;
70420;SDS011;57848;51.938;15.520;2022-08-25T12:47:33;26.95;;;7.15;;
70420;SDS011;57848;51.938;15.520;2022-08-25T12:55:59;21.33;;;7.10;;
70420;SDS011;57848;51.938;15.520;2022-08-25T12:58:33;22.83;;;6.60;;
70420;SDS011;57848;51.938;15.520;2022-08-25T13:12:39;16.87;;;6.00;;
70420;SDS011;57848;51.938;15.520;2022-08-25T13:15:24;23.45;;;6.68;;
70420;SDS011;57848;51.938;15.520;2022-08-25T13:18:15;25.65;;;6.72;;
70420;SDS011;57848;51.938;15.520;2022-08-25T13:20:44;21.17;;;6.88;;
70420;SDS011;57848;51.938;15.520;2022-08-25T13:23:11;23.20;;;6.83;;
70420;SDS011;57848;51.938;15.520;2022-08-25T13:25:45;22.77;;;6.75;;
70420;SDS011;57848;51.938;15.520;2022-08-25T13:28:18;22.30;;;6.80;;
70420;SDS011;57848;51.938;15.520;2022-08-25T13:30:49;25.17;;;7.30;;
70420;SDS011;57848;51.938;15.520;2022-08-25T13:33:22;20.58;;;6.32;;
70420;SDS011;57848;51.938;15.520;2022-08-25T13:35:51;29.80;;;7.10;;
70420;SDS011;57848;51.938;15.520;2022-08-25T13:38:37;23.67;;;7.07;;
70420;SDS011;57848;51.938;15.520;2022-08-25T13:41:04;20.23;;;7.40;;
70420;SDS011;57848;51.938;15.520;2022-08-25T13:43:31;21.90;;;6.80;;
70420;SDS011;57848;51.938;15.520;2022-08-25T13:45:56;25.00;;;6.77;;
70420;SDS011;57848;51.938;15.520;2022-08-25T13:48:33;19.50;;;7.15;;
70420;SDS011;57848;51.938;15.520;2022-08-25T13:51:09;21.30;;;6.75;;
70420;SDS011;57848;51.938;15.520;2022-08-25T13:53:39;29.03;;;6.70;;
70420;SDS011;57848;51.938;15.520;2022-08-25T13:56:05;25.70;;;7.57;;
70420;SDS011;57848;51.938;15.520;2022-08-25T13:58:32;20.23;;;6.97;;
70420;SDS011;57848;51.938;15.520;2022-08-25T14:01:20;19.52;;;6.50;;
70420;SDS011;57848;51.938;15.520;2022-08-25T14:03:48;20.52;;;7.10;;
70420;SDS011;57848;51.938;15.520;2022-08-25T14:08:41;20.47;;;6.90;;
70420;SDS011;57848;51.938;15.520;2022-08-25T14:11:14;25.25;;;7.13;;
70420;SDS011;57848;51.938;15.520;2022-08-25T14:14:02;20.35;;;6.40;;
70420;SDS011;57848;51.938;15.520;2022-08-25T14:16:28;25.23;;;7.18;;
70420;SDS011;57848;51.938;15.520;2022-08-25T14:18:57;24.30;;;7.10;;
70420;SDS011;57848;51.938;15.520;2022-08-25T14:21:25;24.50;;;6.30;;
70420;SDS011;57848;51.938;15.520;2022-08-25T14:23:52;25.10;;;6.97;;
70420;SDS011;57848;51.938;15.520;2022-08-25T14:26:19;30.58;;;7.47;;
70420;SDS011;57848;51.938;15.520;2022-08-25T14:28:45;28.73;;;7.07;;
70420;SDS011;57848;51.938;15.520;2022-08-25T14:31:29;20.67;;;7.27;;
70420;SDS011;57848;51.938;15.520;2022-08-25T14:33:59;23.25;;;7.63;;
70420;SDS011;57848;51.938;15.520;2022-08-25T14:36:27;22.00;;;7.00;;
70420;SDS011;57848;51.938;15.520;2022-08-25T14:38:53;27.13;;;7.88;;
70420;SDS011;57848;51.938;15.520;2022-08-25T14:41:19;23.27;;;6.72;;
70420;SDS011;57848;51.938;15.520;2022-08-25T14:43:47;23.38;;;6.97;;
70420;SDS011;57848;51.938;15.520;2022-08-25T14:46:15;24.77;;;7.20;;
70420;SDS011;57848;51.938;15.520;2022-08-25T14:48:44;25.23;;;7.55;;
70420;SDS011;57848;51.938;15.520;2022-08-25T14:51:12;21.73;;;7.32;;
70420;SDS011;57848;51.938;15.520;2022-08-25T14:53:39;30.50;;;7.17;;
70420;SDS011;57848;51.938;15.520;2022-08-25T14:56:05;25.65;;;7.55;;
70420;SDS011;57848;51.938;15.520;2022-08-25T14:58:30;27.27;;;7.57;;
70420;SDS011;57848;51.938;15.520;2022-08-25T15:00:56;24.77;;;7.10;;
70420;SDS011;57848;51.938;15.520;2022-08-25T15:03:31;28.37;;;7.10;;
70420;SDS011;57848;51.938;15.520;2022-08-25T15:05:59;25.15;;;7.32;;
70420;SDS011;57848;51.938;15.520;2022-08-25T15:08:25;27.52;;;7.30;;
70420;SDS011;57848;51.938;15.520;2022-08-25T15:11:09;25.65;;;8.07;;
70420;SDS011;57848;51.938;15.520;2022-08-25T15:13:35;25.47;;;7.23;;
70420;SDS011;57848;51.938;15.520;2022-08-25T15:16:00;30.83;;;7.33;;
70420;SDS011;57848;51.938;15.520;2022-08-25T15:18:26;23.48;;;7.93;;
70420;SDS011;57848;51.938;15.520;2022-08-25T15:20:51;25.63;;;8.07;;
70420;SDS011;57848;51.938;15.520;2022-08-25T15:23:17;25.57;;;8.13;;
70420;SDS011;57848;51.938;15.520;2022-08-25T15:25:43;32.67;;;8.02;;
70420;SDS011;57848;51.938;15.520;2022-08-25T15:28:11;26.95;;;7.05;;
70420;SDS011;57848;51.938;15.520;2022-08-25T15:30:37;28.55;;;7.25;;
70420;SDS011;57848;51.938;15.520;2022-08-25T15:33:03;29.20;;;7.77;;
70420;SDS011;57848;51.938;15.520;2022-08-25T15:35:29;25.13;;;8.25;;
70420;SDS011;57848;51.938;15.520;2022-08-25T15:37:54;24.53;;;7.57;;
70420;SDS011;57848;51.938;15.520;2022-08-25T15:40:19;25.37;;;8.40;;
70420;SDS011;57848;51.938;15.520;2022-08-25T15:42:45;29.30;;;7.70;;
70420;SDS011;57848;51.938;15.520;2022-08-25T15:45:10;31.53;;;8.43;;
70420;SDS011;57848;51.938;15.520;2022-08-25T15:47:36;25.35;;;7.43;;
70420;SDS011;57848;51.938;15.520;2022-08-25T15:50:06;25.00;;;7.30;;
70420;SDS011;57848;51.938;15.520;2022-08-25T15:52:34;32.10;;;7.55;;
70420;SDS011;57848;51.938;15.520;2022-08-25T15:54:59;31.10;;;7.65;;
70420;SDS011;57848;51.938;15.520;2022-08-25T15:57:25;24.43;;;7.30;;
70420;SDS011;57848;51.938;15.520;2022-08-25T15:59:51;24.77;;;7.43;;
70420;SDS011;57848;51.938;15.520;2022-08-25T16:02:17;34.10;;;7.63;;
70420;SDS011;57848;51.938;15.520;2022-08-25T16:04:42;29.38;;;7.63;;
70420;SDS011;57848;51.938;15.520;2022-08-25T16:07:07;31.40;;;7.37;;
70420;SDS011;57848;51.938;15.520;2022-08-25T16:09:32;33.93;;;8.23;;